sensor_id;sensor_type;location;lat;lon;timestamp;P1;durP1;ratioP1;P2;durP2;ratioP2
60492;SDS011;46341;51.290;-2.474;2022-11-11T00:01:33;4.90;;;1.00;;
60492;SDS011;46341;51.290;-2.474;2022-11-11T00:03:59;6.57;;;1.08;;
60492;SDS011;46341;51.290;-2.474;2022-11-11T00:06:25;5.95;;;1.30;;
60492;SDS011;46341;51.290;-2.474;2022-11-11T00:08:52;5.80;;;1.30;;
60492;SDS011;46341;51.290;-2.474;2022-11-11T00:11:18;5.57;;;1.10;;
60492;SDS011;46341;51.290;-2.474;2022-11-11T00:13:44;5.22;;;1.50;;
60492;SDS011;46341;51.290;-2.474;2022-11-11T00:16:12;5.35;;;1.35;;
60492;SDS011;46341;51.290;-2.474;2022-11-11T00:18:39;5.07;;;1.10;;
60492;SDS011;46341;51.290;-2.474;2022-11-11T00:21:24;4.50;;;1.40;;
60492;SDS011;46341;51.290;-2.474;2022-11-11T00:24:28;6.00;;;1.30;;
60492;SDS011;46341;51.290;-2.474;2022-11-11T00:27:13;4.55;;;1.20;;
60492;SDS011;46341;51.290;-2.474;2022-11-11T00:29:40;5.85;;;1.30;;
60492;SDS011;46341;51.290;-2.474;2022-11-11T00:32:11;5.68;;;1.10;;
60492;SDS011;46341;51.290;-2.474;2022-11-11T00:34:50;8.75;;;1.75;;
60492;SDS011;46341;51.290;-2.474;2022-11-11T00:37:35;6.82;;;1.55;;
60492;SDS011;46341;51.290;-2.474;2022-11-11T00:40:02;5.00;;;1.30;;
60492;SDS011;46341;51.290;-2.474;2022-11-11T00:42:29;5.78;;;1.42;;
60492;SDS011;46341;51.290;-2.474;2022-11-11T00:44:55;7.25;;;1.50;;
60492;SDS011;46341;51.290;-2.474;2022-11-11T00:47:21;6.18;;;1.80;;
60492;SDS011;46341;51.290;-2.474;2022-11-11T00:50:09;7.32;;;1.60;;
60492;SDS011;46341;51.290;-2.474;2022-11-11T00:52:54;7.90;;;1.50;;
60492;SDS011;46341;51.290;-2.474;2022-11-11T00:55:21;8.73;;;1.58;;
60492;SDS011;46341;51.290;-2.474;2022-11-11T00:57:47;3.80;;;1.42;;
60492;SDS011;46341;51.290;-2.474;2022-11-11T01:00:14;5.75;;;1.60;;
60492;SDS011;46341;51.290;-2.474;2022-11-11T01:02:40;7.40;;;1.55;;
60492;SDS011;46341;51.290;-2.474;2022-11-11T01:05:07;5.25;;;1.73;;
60492;SDS011;46341;51.290;-2.474;2022-11-11T01:07:33;7.22;;;1.98;;
60492;SDS011;46341;51.290;-2.474;2022-11-11T01:10:00;6.80;;;1.65;;
60492;SDS011;46341;51.290;-2.474;2022-11-11T01:12:26;7.93;;;1.50;;
60492;SDS011;46341;51.290;-2.474;2022-11-11T01:14:53;6.88;;;1.80;;
60492;SDS011;46341;51.290;-2.474;2022-11-11T01:17:19;5.03;;;1.38;;
60492;SDS011;46341;51.290;-2.474;2022-11-11T01:19:45;7.03;;;1.70;;
60492;SDS011;46341;51.290;-2.474;2022-11-11T01:22:12;6.63;;;2.00;;
60492;SDS011;46341;51.290;-2.474;2022-11-11T01:24:38;8.27;;;1.85;;
60492;SDS011;46341;51.290;-2.474;2022-11-11T01:27:05;8.77;;;2.08;;
60492;SDS011;46341;51.290;-2.474;2022-11-11T01:29:31;9.02;;;2.05;;
60492;SDS011;46341;51.290;-2.474;2022-11-11T01:31:58;5.25;;;1.80;;
60492;SDS011;46341;51.290;-2.474;2022-11-11T01:34:24;8.00;;;1.77;;
60492;SDS011;46341;51.290;-2.474;2022-11-11T01:36:50;7.55;;;2.15;;
60492;SDS011;46341;51.290;-2.474;2022-11-11T01:39:17;7.25;;;1.90;;
60492;SDS011;46341;51.290;-2.474;2022-11-11T01:41:43;6.28;;;1.75;;
60492;SDS011;46341;51.290;-2.474;2022-11-11T01:59:46;3.85;;;1.40;;
60492;SDS011;46341;51.290;-2.474;2022-11-11T02:02:16;5.28;;;1.67;;
60492;SDS011;46341;51.290;-2.474;2022-11-11T02:04:44;10.73;;;2.10;;
60492;SDS011;46341;51.290;-2.474;2022-11-11T02:07:30;11.10;;;2.50;;
60492;SDS011;46341;51.290;-2.474;2022-11-11T02:09:57;9.90;;;2.00;;
60492;SDS011;46341;51.290;-2.474;2022-11-11T02:12:23;8.40;;;2.33;;
60492;SDS011;46341;51.290;-2.474;2022-11-11T02:15:08;7.75;;;2.35;;
60492;SDS011;46341;51.290;-2.474;2022-11-11T02:17:35;9.57;;;1.90;;
60492;SDS011;46341;51.290;-2.474;2022-11-11T02:20:02;7.95;;;1.95;;
60492;SDS011;46341;51.290;-2.474;2022-11-11T02:22:44;6.55;;;1.83;;
60492;SDS011;46341;51.290;-2.474;2022-11-11T02:25:15;9.70;;;2.30;;
60492;SDS011;46341;51.290;-2.474;2022-11-11T02:27:43;5.78;;;1.98;;
60492;SDS011;46341;51.290;-2.474;2022-11-11T02:30:11;6.50;;;1.95;;
60492;SDS011;46341;51.290;-2.474;2022-11-11T02:32:47;7.53;;;2.05;;
60492;SDS011;46341;51.290;-2.474;2022-11-11T02:35:17;9.77;;;2.28;;
60492;SDS011;46341;51.290;-2.474;2022-11-11T02:37:45;7.07;;;1.95;;
60492;SDS011;46341;51.290;-2.474;2022-11-11T02:40:13;6.85;;;2.08;;
60492;SDS011;46341;51.290;-2.474;2022-11-11T02:42:41;6.80;;;1.80;;
60492;SDS011;46341;51.290;-2.474;2022-11-11T02:45:08;8.32;;;1.80;;
60492;SDS011;46341;51.290;-2.474;2022-11-11T02:47:34;10.18;;;2.20;;
60492;SDS011;46341;51.290;-2.474;2022-11-11T02:50:01;6.15;;;1.98;;
60492;SDS011;46341;51.290;-2.474;2022-11-11T02:52:27;10.38;;;2.40;;
60492;SDS011;46341;51.290;-2.474;2022-11-11T02:54:54;8.70;;;2.60;;
60492;SDS011;46341;51.290;-2.474;2022-11-11T02:57:21;5.55;;;1.70;;
60492;SDS011;46341;51.290;-2.474;2022-11-11T02:59:47;10.77;;;2.10;;
60492;SDS011;46341;51.290;-2.474;2022-11-11T03:02:14;9.65;;;1.77;;
60492;SDS011;46341;51.290;-2.474;2022-11-11T03:04:40;8.55;;;1.60;;
60492;SDS011;46341;51.290;-2.474;2022-11-11T03:07:07;8.55;;;1.70;;
60492;SDS011;46341;51.290;-2.474;2022-11-11T03:09:34;8.77;;;1.98;;
60492;SDS011;46341;51.290;-2.474;2022-11-11T03:12:00;6.78;;;1.48;;
60492;SDS011;46341;51.290;-2.474;2022-11-11T03:14:27;5.68;;;2.00;;
60492;SDS011;46341;51.290;-2.474;2022-11-11T03:16:53;9.85;;;2.03;;
60492;SDS011;46341;51.290;-2.474;2022-11-11T03:19:38;6.97;;;1.98;;
60492;SDS011;46341;51.290;-2.474;2022-11-11T03:22:05;7.40;;;1.48;;
60492;SDS011;46341;51.290;-2.474;2022-11-11T03:24:51;6.97;;;2.03;;
60492;SDS011;46341;51.290;-2.474;2022-11-11T03:27:36;9.40;;;2.20;;
60492;SDS011;46341;51.290;-2.474;2022-11-11T03:30:03;7.72;;;1.92;;
60492;SDS011;46341;51.290;-2.474;2022-11-11T03:32:29;4.18;;;1.80;;
60492;SDS011;46341;51.290;-2.474;2022-11-11T03:34:55;6.65;;;1.80;;
60492;SDS011;46341;51.290;-2.474;2022-11-11T03:37:22;8.45;;;1.95;;
60492;SDS011;46341;51.290;-2.474;2022-11-11T03:40:07;7.30;;;1.85;;
60492;SDS011;46341;51.290;-2.474;2022-11-11T03:42:34;4.85;;;1.70;;
60492;SDS011;46341;51.290;-2.474;2022-11-11T03:45:00;7.22;;;1.63;;
60492;SDS011;46341;51.290;-2.474;2022-11-11T03:47:26;4.72;;;1.30;;
60492;SDS011;46341;51.290;-2.474;2022-11-11T03:49:53;6.40;;;1.67;;
60492;SDS011;46341;51.290;-2.474;2022-11-11T03:52:19;5.97;;;1.73;;
60492;SDS011;46341;51.290;-2.474;2022-11-11T03:54:45;6.57;;;1.85;;
60492;SDS011;46341;51.290;-2.474;2022-11-11T03:57:12;7.68;;;1.40;;
60492;SDS011;46341;51.290;-2.474;2022-11-11T03:59:56;6.63;;;1.65;;
60492;SDS011;46341;51.290;-2.474;2022-11-11T04:02:22;10.18;;;1.73;;
60492;SDS011;46341;51.290;-2.474;2022-11-11T04:05:07;6.57;;;1.70;;
60492;SDS011;46341;51.290;-2.474;2022-11-11T04:07:52;6.20;;;1.48;;
60492;SDS011;46341;51.290;-2.474;2022-11-11T04:10:37;7.38;;;1.90;;
60492;SDS011;46341;51.290;-2.474;2022-11-11T04:13:04;9.45;;;1.60;;
60492;SDS011;46341;51.290;-2.474;2022-11-11T04:15:49;5.75;;;1.30;;
60492;SDS011;46341;51.290;-2.474;2022-11-11T04:18:34;5.63;;;1.45;;
60492;SDS011;46341;51.290;-2.474;2022-11-11T04:21:19;6.93;;;1.58;;
60492;SDS011;46341;51.290;-2.474;2022-11-11T04:24:04;5.60;;;1.58;;
60492;SDS011;46341;51.290;-2.474;2022-11-11T04:26:54;9.52;;;1.58;;
60492;SDS011;46341;51.290;-2.474;2022-11-11T04:29:21;3.78;;;1.48;;
60492;SDS011;46341;51.290;-2.474;2022-11-11T04:34:40;7.05;;;1.45;;
60492;SDS011;46341;51.290;-2.474;2022-11-11T04:37:06;5.28;;;1.13;;
60492;SDS011;46341;51.290;-2.474;2022-11-11T04:39:33;5.93;;;1.00;;
60492;SDS011;46341;51.290;-2.474;2022-11-11T04:42:18;3.53;;;1.00;;
60492;SDS011;46341;51.290;-2.474;2022-11-11T04:44:44;4.57;;;1.13;;
60492;SDS011;46341;51.290;-2.474;2022-11-11T04:47:29;4.05;;;0.98;;
60492;SDS011;46341;51.290;-2.474;2022-11-11T04:49:55;6.03;;;1.08;;
60492;SDS011;46341;51.290;-2.474;2022-11-11T04:52:22;4.20;;;1.10;;
60492;SDS011;46341;51.290;-2.474;2022-11-11T04:54:55;5.35;;;1.23;;
60492;SDS011;46341;51.290;-2.474;2022-11-11T04:57:47;5.35;;;1.42;;
60492;SDS011;46341;51.290;-2.474;2022-11-11T05:00:15;4.00;;;1.65;;
60492;SDS011;46341;51.290;-2.474;2022-11-11T05:02:41;7.07;;;1.63;;
60492;SDS011;46341;51.290;-2.474;2022-11-11T05:05:27;6.93;;;1.45;;
60492;SDS011;46341;51.290;-2.474;2022-11-11T05:07:54;6.72;;;1.70;;
60492;SDS011;46341;51.290;-2.474;2022-11-11T05:10:39;4.50;;;1.40;;
60492;SDS011;46341;51.290;-2.474;2022-11-11T05:13:05;5.20;;;2.20;;
60492;SDS011;46341;51.290;-2.474;2022-11-11T05:15:51;7.72;;;2.15;;
60492;SDS011;46341;51.290;-2.474;2022-11-11T05:18:36;6.40;;;1.40;;
60492;SDS011;46341;51.290;-2.474;2022-11-11T05:21:24;7.57;;;1.33;;
60492;SDS011;46341;51.290;-2.474;2022-11-11T05:23:51;6.05;;;1.52;;
60492;SDS011;46341;51.290;-2.474;2022-11-11T05:26:36;9.20;;;1.90;;
60492;SDS011;46341;51.290;-2.474;2022-11-11T05:29:03;7.53;;;1.60;;
60492;SDS011;46341;51.290;-2.474;2022-11-11T05:31:29;5.88;;;1.48;;
60492;SDS011;46341;51.290;-2.474;2022-11-11T05:33:55;3.80;;;1.25;;
60492;SDS011;46341;51.290;-2.474;2022-11-11T05:36:22;5.63;;;1.30;;
60492;SDS011;46341;51.290;-2.474;2022-11-11T05:38:48;5.60;;;1.38;;
60492;SDS011;46341;51.290;-2.474;2022-11-11T05:41:14;8.35;;;1.88;;
60492;SDS011;46341;51.290;-2.474;2022-11-11T05:43:41;5.40;;;1.42;;
60492;SDS011;46341;51.290;-2.474;2022-11-11T05:46:07;2.90;;;1.00;;
60492;SDS011;46341;51.290;-2.474;2022-11-11T05:48:34;6.55;;;1.40;;
60492;SDS011;46341;51.290;-2.474;2022-11-11T05:51:00;3.75;;;1.27;;
60492;SDS011;46341;51.290;-2.474;2022-11-11T05:53:26;4.25;;;1.10;;
60492;SDS011;46341;51.290;-2.474;2022-11-11T05:55:53;6.13;;;0.90;;
60492;SDS011;46341;51.290;-2.474;2022-11-11T05:58:20;7.63;;;1.30;;
60492;SDS011;46341;51.290;-2.474;2022-11-11T06:00:46;8.57;;;1.48;;
60492;SDS011;46341;51.290;-2.474;2022-11-11T06:03:13;4.28;;;1.15;;
60492;SDS011;46341;51.290;-2.474;2022-11-11T06:05:39;4.50;;;1.33;;
60492;SDS011;46341;51.290;-2.474;2022-11-11T06:08:05;7.95;;;1.27;;
60492;SDS011;46341;51.290;-2.474;2022-11-11T06:10:32;8.95;;;1.60;;
60492;SDS011;46341;51.290;-2.474;2022-11-11T06:12:58;4.53;;;1.10;;
60492;SDS011;46341;51.290;-2.474;2022-11-11T06:15:30;10.85;;;1.75;;
60492;SDS011;46341;51.290;-2.474;2022-11-11T06:17:58;6.43;;;1.48;;
60492;SDS011;46341;51.290;-2.474;2022-11-11T06:20:24;3.75;;;1.48;;
60492;SDS011;46341;51.290;-2.474;2022-11-11T06:22:51;7.57;;;1.60;;
60492;SDS011;46341;51.290;-2.474;2022-11-11T06:25:24;8.90;;;1.45;;
60492;SDS011;46341;51.290;-2.474;2022-11-11T06:28:09;8.95;;;2.10;;
60492;SDS011;46341;51.290;-2.474;2022-11-11T06:30:35;8.82;;;2.22;;
60492;SDS011;46341;51.290;-2.474;2022-11-11T06:33:16;8.93;;;1.90;;
60492;SDS011;46341;51.290;-2.474;2022-11-11T06:35:42;8.15;;;1.90;;
60492;SDS011;46341;51.290;-2.474;2022-11-11T06:38:08;10.18;;;1.75;;
60492;SDS011;46341;51.290;-2.474;2022-11-11T06:40:35;10.25;;;1.67;;
60492;SDS011;46341;51.290;-2.474;2022-11-11T06:43:01;5.50;;;1.80;;
60492;SDS011;46341;51.290;-2.474;2022-11-11T06:45:28;10.18;;;2.08;;
60492;SDS011;46341;51.290;-2.474;2022-11-11T06:47:55;8.05;;;1.83;;
60492;SDS011;46341;51.290;-2.474;2022-11-11T06:50:21;6.65;;;1.95;;
60492;SDS011;46341;51.290;-2.474;2022-11-11T06:52:48;9.77;;;1.83;;
60492;SDS011;46341;51.290;-2.474;2022-11-11T06:55:14;7.55;;;2.10;;
60492;SDS011;46341;51.290;-2.474;2022-11-11T06:57:40;8.55;;;2.22;;
60492;SDS011;46341;51.290;-2.474;2022-11-11T07:00:07;6.93;;;1.83;;
60492;SDS011;46341;51.290;-2.474;2022-11-11T07:02:34;5.43;;;1.20;;
60492;SDS011;46341;51.290;-2.474;2022-11-11T07:05:00;6.35;;;1.55;;
60492;SDS011;46341;51.290;-2.474;2022-11-11T07:07:27;3.75;;;1.30;;
60492;SDS011;46341;51.290;-2.474;2022-11-11T07:09:53;6.15;;;1.67;;
60492;SDS011;46341;51.290;-2.474;2022-11-11T07:12:21;5.25;;;1.33;;
60492;SDS011;46341;51.290;-2.474;2022-11-11T07:14:47;8.45;;;1.98;;
60492;SDS011;46341;51.290;-2.474;2022-11-11T07:17:14;5.32;;;1.58;;
60492;SDS011;46341;51.290;-2.474;2022-11-11T07:19:40;4.93;;;1.38;;
60492;SDS011;46341;51.290;-2.474;2022-11-11T07:22:06;4.88;;;1.48;;
60492;SDS011;46341;51.290;-2.474;2022-11-11T07:24:33;6.28;;;1.80;;
60492;SDS011;46341;51.290;-2.474;2022-11-11T07:26:59;4.03;;;1.20;;
60492;SDS011;46341;51.290;-2.474;2022-11-11T07:29:27;5.95;;;1.45;;
60492;SDS011;46341;51.290;-2.474;2022-11-11T07:31:54;5.93;;;1.90;;
60492;SDS011;46341;51.290;-2.474;2022-11-11T07:34:20;6.35;;;1.60;;
60492;SDS011;46341;51.290;-2.474;2022-11-11T07:36:47;8.30;;;1.30;;
60492;SDS011;46341;51.290;-2.474;2022-11-11T07:39:13;3.35;;;1.60;;
60492;SDS011;46341;51.290;-2.474;2022-11-11T07:41:39;4.90;;;1.17;;
60492;SDS011;46341;51.290;-2.474;2022-11-11T07:44:06;4.53;;;1.17;;
60492;SDS011;46341;51.290;-2.474;2022-11-11T07:46:32;5.90;;;1.70;;
60492;SDS011;46341;51.290;-2.474;2022-11-11T07:48:59;6.57;;;1.70;;
60492;SDS011;46341;51.290;-2.474;2022-11-11T07:51:25;4.65;;;1.38;;
60492;SDS011;46341;51.290;-2.474;2022-11-11T07:53:51;7.85;;;1.88;;
60492;SDS011;46341;51.290;-2.474;2022-11-11T07:56:18;5.38;;;1.48;;
60492;SDS011;46341;51.290;-2.474;2022-11-11T07:58:44;6.15;;;1.38;;
60492;SDS011;46341;51.290;-2.474;2022-11-11T08:01:10;4.90;;;1.42;;
60492;SDS011;46341;51.290;-2.474;2022-11-11T08:03:37;5.32;;;1.70;;
60492;SDS011;46341;51.290;-2.474;2022-11-11T08:08:41;8.57;;;1.52;;
60492;SDS011;46341;51.290;-2.474;2022-11-11T08:11:07;7.82;;;1.98;;
60492;SDS011;46341;51.290;-2.474;2022-11-11T08:13:33;6.35;;;1.70;;
60492;SDS011;46341;51.290;-2.474;2022-11-11T08:16:10;9.00;;;1.90;;
60492;SDS011;46341;51.290;-2.474;2022-11-11T08:18:36;9.48;;;2.50;;
60492;SDS011;46341;51.290;-2.474;2022-11-11T08:21:03;8.45;;;1.92;;
60492;SDS011;46341;51.290;-2.474;2022-11-11T08:23:31;6.75;;;1.92;;
60492;SDS011;46341;51.290;-2.474;2022-11-11T08:26:19;7.03;;;2.20;;
60492;SDS011;46341;51.290;-2.474;2022-11-11T08:28:54;8.27;;;2.03;;
60492;SDS011;46341;51.290;-2.474;2022-11-11T08:31:21;8.88;;;2.00;;
60492;SDS011;46341;51.290;-2.474;2022-11-11T08:33:47;9.73;;;2.40;;
60492;SDS011;46341;51.290;-2.474;2022-11-11T08:36:14;5.90;;;1.85;;
60492;SDS011;46341;51.290;-2.474;2022-11-11T08:38:46;11.05;;;2.55;;
60492;SDS011;46341;51.290;-2.474;2022-11-11T08:41:12;6.93;;;2.13;;
60492;SDS011;46341;51.290;-2.474;2022-11-11T08:43:39;11.93;;;2.63;;
60492;SDS011;46341;51.290;-2.474;2022-11-11T08:46:05;7.15;;;2.40;;
60492;SDS011;46341;51.290;-2.474;2022-11-11T08:48:32;9.45;;;1.98;;
60492;SDS011;46341;51.290;-2.474;2022-11-11T08:50:58;11.02;;;2.13;;
60492;SDS011;46341;51.290;-2.474;2022-11-11T08:53:25;6.57;;;1.90;;
60492;SDS011;46341;51.290;-2.474;2022-11-11T08:55:52;7.45;;;2.00;;
60492;SDS011;46341;51.290;-2.474;2022-11-11T08:58:19;5.13;;;1.63;;
60492;SDS011;46341;51.290;-2.474;2022-11-11T09:00:45;6.40;;;1.67;;
60492;SDS011;46341;51.290;-2.474;2022-11-11T09:03:12;8.45;;;2.53;;
60492;SDS011;46341;51.290;-2.474;2022-11-11T09:05:39;6.80;;;1.98;;
60492;SDS011;46341;51.290;-2.474;2022-11-11T09:08:06;7.30;;;2.10;;
60492;SDS011;46341;51.290;-2.474;2022-11-11T09:10:33;12.18;;;2.15;;
60492;SDS011;46341;51.290;-2.474;2022-11-11T09:13:00;5.70;;;1.90;;
60492;SDS011;46341;51.290;-2.474;2022-11-11T09:15:26;11.73;;;1.98;;
60492;SDS011;46341;51.290;-2.474;2022-11-11T09:17:53;8.05;;;1.77;;
60492;SDS011;46341;51.290;-2.474;2022-11-11T09:20:20;6.65;;;1.95;;
60492;SDS011;46341;51.290;-2.474;2022-11-11T09:22:51;6.15;;;1.60;;
60492;SDS011;46341;51.290;-2.474;2022-11-11T09:25:18;6.20;;;1.90;;
60492;SDS011;46341;51.290;-2.474;2022-11-11T09:27:55;10.68;;;2.33;;
60492;SDS011;46341;51.290;-2.474;2022-11-11T09:30:22;6.73;;;1.73;;
60492;SDS011;46341;51.290;-2.474;2022-11-11T09:32:49;11.40;;;2.25;;
60492;SDS011;46341;51.290;-2.474;2022-11-11T09:35:16;8.85;;;1.58;;
60492;SDS011;46341;51.290;-2.474;2022-11-11T09:37:51;9.82;;;2.03;;
60492;SDS011;46341;51.290;-2.474;2022-11-11T09:40:18;6.05;;;1.58;;
60492;SDS011;46341;51.290;-2.474;2022-11-11T09:42:58;9.88;;;2.00;;
60492;SDS011;46341;51.290;-2.474;2022-11-11T09:45:34;7.78;;;1.90;;
60492;SDS011;46341;51.290;-2.474;2022-11-11T09:48:19;10.30;;;2.10;;
60492;SDS011;46341;51.290;-2.474;2022-11-11T09:50:51;8.70;;;1.88;;
60492;SDS011;46341;51.290;-2.474;2022-11-11T09:53:39;5.85;;;1.60;;
60492;SDS011;46341;51.290;-2.474;2022-11-11T09:56:08;7.95;;;2.00;;
60492;SDS011;46341;51.290;-2.474;2022-11-11T09:59:14;7.60;;;1.80;;
60492;SDS011;46341;51.290;-2.474;2022-11-11T10:01:44;4.78;;;1.75;;
60492;SDS011;46341;51.290;-2.474;2022-11-11T10:06:59;11.85;;;2.00;;
60492;SDS011;46341;51.290;-2.474;2022-11-11T10:09:39;7.07;;;1.55;;
60492;SDS011;46341;51.290;-2.474;2022-11-11T10:12:07;7.05;;;2.05;;
60492;SDS011;46341;51.290;-2.474;2022-11-11T10:14:37;6.97;;;1.63;;
60492;SDS011;46341;51.290;-2.474;2022-11-11T10:22:32;7.25;;;1.80;;
60492;SDS011;46341;51.290;-2.474;2022-11-11T10:27:42;7.28;;;2.15;;
60492;SDS011;46341;51.290;-2.474;2022-11-11T10:32:41;10.73;;;2.08;;
60492;SDS011;46341;51.290;-2.474;2022-11-11T10:35:15;8.50;;;1.88;;
60492;SDS011;46341;51.290;-2.474;2022-11-11T10:37:43;12.32;;;2.20;;
60492;SDS011;46341;51.290;-2.474;2022-11-11T10:40:23;5.53;;;1.50;;
60492;SDS011;46341;51.290;-2.474;2022-11-11T10:42:50;11.13;;;1.70;;
60492;SDS011;46341;51.290;-2.474;2022-11-11T10:45:25;10.52;;;2.28;;
60492;SDS011;46341;51.290;-2.474;2022-11-11T10:47:55;12.25;;;1.95;;
60492;SDS011;46341;51.290;-2.474;2022-11-11T10:50:37;7.03;;;1.75;;
60492;SDS011;46341;51.290;-2.474;2022-11-11T10:53:11;8.93;;;1.75;;
60492;SDS011;46341;51.290;-2.474;2022-11-11T10:55:53;5.85;;;1.50;;
60492;SDS011;46341;51.290;-2.474;2022-11-11T10:58:27;5.32;;;1.80;;
60492;SDS011;46341;51.290;-2.474;2022-11-11T11:00:55;6.38;;;1.52;;
60492;SDS011;46341;51.290;-2.474;2022-11-11T11:03:33;6.65;;;1.73;;
60492;SDS011;46341;51.290;-2.474;2022-11-11T11:08:28;5.70;;;1.63;;
60492;SDS011;46341;51.290;-2.474;2022-11-11T11:10:56;10.57;;;1.45;;
60492;SDS011;46341;51.290;-2.474;2022-11-11T11:16:11;6.28;;;1.08;;
60492;SDS011;46341;51.290;-2.474;2022-11-11T11:18:38;5.78;;;1.38;;
60492;SDS011;46341;51.290;-2.474;2022-11-11T11:21:08;8.98;;;1.83;;
60492;SDS011;46341;51.290;-2.474;2022-11-11T11:26:01;5.78;;;1.05;;
60492;SDS011;46341;51.290;-2.474;2022-11-11T11:28:31;6.43;;;1.42;;
60492;SDS011;46341;51.290;-2.474;2022-11-11T11:30:58;7.83;;;1.27;;
60492;SDS011;46341;51.290;-2.474;2022-11-11T11:33:25;5.55;;;1.33;;
60492;SDS011;46341;51.290;-2.474;2022-11-11T11:35:52;6.35;;;1.48;;
60492;SDS011;46341;51.290;-2.474;2022-11-11T11:38:18;8.00;;;1.35;;
60492;SDS011;46341;51.290;-2.474;2022-11-11T11:40:45;5.38;;;1.30;;
60492;SDS011;46341;51.290;-2.474;2022-11-11T11:43:31;7.05;;;1.10;;
60492;SDS011;46341;51.290;-2.474;2022-11-11T11:45:59;4.65;;;1.13;;
60492;SDS011;46341;51.290;-2.474;2022-11-11T11:56:46;9.13;;;1.27;;
60492;SDS011;46341;51.290;-2.474;2022-11-11T11:59:16;6.00;;;1.23;;
60492;SDS011;46341;51.290;-2.474;2022-11-11T12:07:11;5.53;;;1.55;;
60492;SDS011;46341;51.290;-2.474;2022-11-11T12:15:09;6.03;;;1.00;;
60492;SDS011;46341;51.290;-2.474;2022-11-11T12:20:09;5.13;;;1.00;;
60492;SDS011;46341;51.290;-2.474;2022-11-11T12:25:19;6.05;;;1.23;;
60492;SDS011;46341;51.290;-2.474;2022-11-11T12:30:26;9.07;;;1.30;;
60492;SDS011;46341;51.290;-2.474;2022-11-11T12:33:19;6.57;;;1.20;;
60492;SDS011;46341;51.290;-2.474;2022-11-11T12:35:45;6.63;;;1.63;;
60492;SDS011;46341;51.290;-2.474;2022-11-11T12:51:13;9.05;;;1.25;;
60492;SDS011;46341;51.290;-2.474;2022-11-11T12:56:39;5.20;;;1.33;;
60492;SDS011;46341;51.290;-2.474;2022-11-11T13:04:28;8.13;;;1.73;;
60492;SDS011;46341;51.290;-2.474;2022-11-11T13:10:32;6.72;;;1.27;;
60492;SDS011;46341;51.290;-2.474;2022-11-11T13:15:02;4.68;;;1.15;;
60492;SDS011;46341;51.290;-2.474;2022-11-11T13:17:30;7.35;;;1.27;;
60492;SDS011;46341;51.290;-2.474;2022-11-11T13:19:57;6.13;;;1.27;;
60492;SDS011;46341;51.290;-2.474;2022-11-11T13:22:26;5.30;;;1.52;;
60492;SDS011;46341;51.290;-2.474;2022-11-11T13:32:45;3.75;;;0.90;;
60492;SDS011;46341;51.290;-2.474;2022-11-11T13:37:45;3.75;;;1.45;;
60492;SDS011;46341;51.290;-2.474;2022-11-11T13:40:22;5.35;;;1.35;;
60492;SDS011;46341;51.290;-2.474;2022-11-11T13:42:49;6.32;;;1.42;;
60492;SDS011;46341;51.290;-2.474;2022-11-11T13:47:49;5.95;;;1.30;;
60492;SDS011;46341;51.290;-2.474;2022-11-11T13:50:26;6.15;;;1.27;;
60492;SDS011;46341;51.290;-2.474;2022-11-11T13:53:03;6.82;;;1.50;;
60492;SDS011;46341;51.290;-2.474;2022-11-11T13:55:32;6.57;;;1.45;;
60492;SDS011;46341;51.290;-2.474;2022-11-11T13:57:59;6.70;;;1.30;;
60492;SDS011;46341;51.290;-2.474;2022-11-11T14:00:27;5.30;;;1.20;;
60492;SDS011;46341;51.290;-2.474;2022-11-11T14:05:39;4.97;;;1.38;;
60492;SDS011;46341;51.290;-2.474;2022-11-11T14:08:06;6.60;;;1.33;;
60492;SDS011;46341;51.290;-2.474;2022-11-11T14:13:44;5.95;;;1.25;;
60492;SDS011;46341;51.290;-2.474;2022-11-11T14:15:49;4.18;;;1.30;;
60492;SDS011;46341;51.290;-2.474;2022-11-11T14:20:47;5.00;;;1.30;;
60492;SDS011;46341;51.290;-2.474;2022-11-11T14:23:15;3.72;;;1.45;;
60492;SDS011;46341;51.290;-2.474;2022-11-11T14:25:47;6.85;;;1.33;;
60492;SDS011;46341;51.290;-2.474;2022-11-11T14:30:40;6.95;;;1.40;;
60492;SDS011;46341;51.290;-2.474;2022-11-11T14:33:15;5.23;;;1.40;;
60492;SDS011;46341;51.290;-2.474;2022-11-11T14:40:36;6.53;;;1.35;;
60492;SDS011;46341;51.290;-2.474;2022-11-11T14:43:32;8.20;;;1.63;;
60492;SDS011;46341;51.290;-2.474;2022-11-11T14:45:52;6.78;;;1.73;;
60492;SDS011;46341;51.290;-2.474;2022-11-11T14:51:11;6.70;;;1.48;;
60492;SDS011;46341;51.290;-2.474;2022-11-11T14:53:50;7.25;;;1.52;;
60492;SDS011;46341;51.290;-2.474;2022-11-11T14:56:18;10.05;;;2.05;;
60492;SDS011;46341;51.290;-2.474;2022-11-11T14:58:45;8.48;;;1.83;;
60492;SDS011;46341;51.290;-2.474;2022-11-11T15:01:13;5.57;;;1.63;;
60492;SDS011;46341;51.290;-2.474;2022-11-11T15:03:51;6.13;;;1.58;;
60492;SDS011;46341;51.290;-2.474;2022-11-11T15:06:20;5.95;;;2.05;;
60492;SDS011;46341;51.290;-2.474;2022-11-11T15:11:26;6.93;;;1.88;;
60492;SDS011;46341;51.290;-2.474;2022-11-11T15:21:19;7.07;;;1.88;;
60492;SDS011;46341;51.290;-2.474;2022-11-11T15:26:45;6.65;;;1.77;;
60492;SDS011;46341;51.290;-2.474;2022-11-11T15:29:36;9.50;;;2.42;;
60492;SDS011;46341;51.290;-2.474;2022-11-11T15:37:35;5.38;;;1.83;;
60492;SDS011;46341;51.290;-2.474;2022-11-11T15:40:02;9.18;;;2.80;;
60492;SDS011;46341;51.290;-2.474;2022-11-11T15:42:38;6.50;;;1.88;;
60492;SDS011;46341;51.290;-2.474;2022-11-11T15:45:30;6.45;;;2.20;;
60492;SDS011;46341;51.290;-2.474;2022-11-11T15:47:52;10.32;;;2.65;;
60492;SDS011;46341;51.290;-2.474;2022-11-11T15:52:53;6.80;;;2.10;;
60492;SDS011;46341;51.290;-2.474;2022-11-11T15:55:21;6.03;;;2.25;;
60492;SDS011;46341;51.290;-2.474;2022-11-11T15:57:48;9.60;;;2.58;;
60492;SDS011;46341;51.290;-2.474;2022-11-11T16:02:50;6.05;;;2.50;;
60492;SDS011;46341;51.290;-2.474;2022-11-11T16:05:25;9.18;;;2.70;;
60492;SDS011;46341;51.290;-2.474;2022-11-11T16:07:52;6.55;;;2.63;;
60492;SDS011;46341;51.290;-2.474;2022-11-11T16:10:32;7.97;;;2.75;;
60492;SDS011;46341;51.290;-2.474;2022-11-11T16:17:57;9.77;;;3.13;;
60492;SDS011;46341;51.290;-2.474;2022-11-11T16:21:08;6.15;;;2.80;;
60492;SDS011;46341;51.290;-2.474;2022-11-11T16:23:16;7.45;;;2.75;;
60492;SDS011;46341;51.290;-2.474;2022-11-11T16:25:43;7.47;;;3.05;;
60492;SDS011;46341;51.290;-2.474;2022-11-11T16:28:15;8.27;;;3.17;;
60492;SDS011;46341;51.290;-2.474;2022-11-11T16:30:42;9.80;;;2.90;;
60492;SDS011;46341;51.290;-2.474;2022-11-11T16:36:06;11.18;;;3.00;;
60492;SDS011;46341;51.290;-2.474;2022-11-11T16:38:32;7.90;;;2.50;;
60492;SDS011;46341;51.290;-2.474;2022-11-11T16:40:59;10.57;;;2.75;;
60492;SDS011;46341;51.290;-2.474;2022-11-11T16:43:26;9.40;;;2.90;;
60492;SDS011;46341;51.290;-2.474;2022-11-11T16:46:01;7.45;;;2.85;;
60492;SDS011;46341;51.290;-2.474;2022-11-11T16:50:59;7.85;;;2.67;;
60492;SDS011;46341;51.290;-2.474;2022-11-11T16:53:28;9.43;;;2.50;;
60492;SDS011;46341;51.290;-2.474;2022-11-11T16:55:59;5.25;;;2.42;;
60492;SDS011;46341;51.290;-2.474;2022-11-11T16:58:26;9.00;;;2.90;;
60492;SDS011;46341;51.290;-2.474;2022-11-11T17:01:00;8.98;;;3.20;;
60492;SDS011;46341;51.290;-2.474;2022-11-11T17:03:27;8.23;;;2.50;;
60492;SDS011;46341;51.290;-2.474;2022-11-11T17:05:59;8.63;;;3.22;;
60492;SDS011;46341;51.290;-2.474;2022-11-11T17:08:29;6.43;;;2.13;;
60492;SDS011;46341;51.290;-2.474;2022-11-11T17:10:57;8.18;;;3.00;;
60492;SDS011;46341;51.290;-2.474;2022-11-11T17:13:24;8.40;;;3.40;;
60492;SDS011;46341;51.290;-2.474;2022-11-11T17:15:53;6.93;;;3.08;;
60492;SDS011;46341;51.290;-2.474;2022-11-11T17:18:20;6.68;;;3.10;;
60492;SDS011;46341;51.290;-2.474;2022-11-11T17:20:47;10.15;;;3.10;;
60492;SDS011;46341;51.290;-2.474;2022-11-11T17:23:14;8.35;;;2.70;;
60492;SDS011;46341;51.290;-2.474;2022-11-11T17:25:41;9.55;;;3.22;;
60492;SDS011;46341;51.290;-2.474;2022-11-11T17:28:07;10.18;;;3.22;;
60492;SDS011;46341;51.290;-2.474;2022-11-11T17:30:34;12.82;;;3.58;;
60492;SDS011;46341;51.290;-2.474;2022-11-11T17:33:01;7.47;;;2.85;;